createdAt,value
2022-10-28T00:01:21.966Z,19.47
2022-10-28T00:04:26.512Z,24.60
2022-10-28T00:07:29.895Z,19.70
2022-10-28T00:10:32.861Z,25.00
2022-10-28T00:13:38.975Z,23.87
2022-10-28T00:16:42.365Z,21.90
2022-10-28T00:19:46.629Z,21.23
2022-10-28T00:22:49.582Z,22.07
2022-10-28T00:25:52.914Z,22.40
2022-10-28T00:28:57.929Z,20.43
2022-10-28T00:32:00.871Z,19.53
2022-10-28T00:35:06.170Z,24.07
2022-10-28T00:38:09.129Z,22.80
2022-10-28T00:41:16.408Z,17.20
2022-10-28T00:44:55.094Z,17.50
2022-10-28T00:48:03.806Z,16.23
2022-10-28T00:51:09.974Z,17.43
2022-10-28T00:54:13.952Z,17.70
2022-10-28T00:57:26.409Z,16.87
2022-10-28T01:00:29.403Z,15.73
2022-10-28T01:03:33.242Z,13.53
2022-10-28T01:06:37.767Z,16.33
2022-10-28T01:09:41.487Z,20.33
2022-10-28T01:12:59.810Z,13.77
2022-10-28T01:16:12.140Z,17.10
2022-10-28T01:19:41.855Z,15.67
2022-10-28T01:22:53.650Z,15.40
2022-10-28T01:26:29.151Z,17.50
2022-10-28T01:30:05.551Z,16.83
2022-10-28T01:33:19.979Z,15.73
2022-10-28T01:36:37.690Z,15.53
2022-10-28T01:39:48.215Z,14.97
2022-10-28T01:42:57.700Z,14.73
2022-10-28T01:46:05.514Z,19.73
2022-10-28T01:49:20.618Z,16.03
2022-10-28T01:52:27.897Z,17.10
2022-10-28T01:55:36.139Z,20.07
2022-10-28T01:58:41.242Z,18.03
2022-10-28T02:01:44.603Z,17.40
2022-10-28T02:04:49.299Z,14.73
2022-10-28T02:07:57.450Z,18.33
2022-10-28T02:11:34.499Z,18.23
2022-10-28T02:14:54.175Z,17.03
2022-10-28T02:18:13.864Z,15.80
2022-10-28T02:21:26.005Z,14.50
2022-10-28T02:24:41.651Z,17.90
2022-10-28T02:27:50.387Z,20.33
2022-10-28T02:31:00.212Z,13.97
2022-10-28T02:34:08.259Z,13.10
2022-10-28T02:37:17.879Z,12.63
2022-10-28T02:40:26.162Z,16.43
2022-10-28T02:43:31.197Z,15.80
2022-10-28T02:46:37.949Z,16.00
2022-10-28T02:49:46.234Z,17.40
2022-10-28T02:52:57.813Z,15.50
2022-10-28T02:56:04.715Z,14.83
2022-10-28T02:59:12.008Z,15.47
2022-10-28T03:02:15.089Z,13.73
2022-10-28T03:05:18.782Z,15.40
2022-10-28T03:08:24.682Z,13.87
2022-10-28T03:11:27.756Z,13.73
2022-10-28T03:14:30.679Z,16.30
2022-10-28T03:17:33.635Z,14.53
2022-10-28T03:20:36.737Z,18.20
2022-10-28T03:23:41.289Z,13.13
2022-10-28T03:26:44.178Z,14.17
2022-10-28T03:29:47.105Z,16.33
2022-10-28T03:32:50.139Z,17.83
2022-10-28T03:35:53.286Z,14.53
2022-10-28T03:38:57.719Z,15.23
2022-10-28T03:42:00.662Z,15.37
2022-10-28T03:45:03.865Z,12.67
2022-10-28T03:48:08.143Z,14.13
2022-10-28T03:51:11.161Z,17.13
2022-10-28T03:54:15.642Z,16.93
2022-10-28T03:57:18.654Z,12.63
2022-10-28T04:00:22.074Z,14.37
2022-10-28T04:03:26.827Z,18.03
2022-10-28T04:06:29.956Z,11.17
2022-10-28T04:09:34.326Z,15.93
2022-10-28T04:12:37.603Z,16.97
2022-10-28T04:15:41.047Z,13.10
2022-10-28T04:18:44.084Z,14.13
2022-10-28T04:21:47.067Z,16.20
2022-10-28T04:24:52.795Z,16.03
2022-10-28T04:27:56.195Z,17.10
2022-10-28T04:30:59.411Z,16.97
2022-10-28T04:34:02.641Z,19.23
2022-10-28T04:37:05.674Z,17.37
2022-10-28T04:40:11.674Z,17.80
2022-10-28T04:43:14.729Z,19.40
2022-10-28T04:46:17.976Z,18.90
2022-10-28T04:49:20.980Z,14.60
2022-10-28T04:52:23.940Z,14.87
2022-10-28T04:55:28.641Z,14.67
2022-10-28T04:58:31.580Z,18.73
2022-10-28T05:01:34.612Z,23.13
2022-10-28T05:04:37.766Z,20.83
2022-10-28T05:07:40.682Z,16.23
2022-10-28T05:10:48.785Z,16.73
2022-10-28T05:13:53.049Z,21.13
2022-10-28T05:16:56.021Z,17.33
2022-10-28T05:19:58.990Z,19.17
2022-10-28T05:23:02.039Z,18.63
2022-10-28T05:26:06.554Z,21.23
2022-10-28T05:29:09.548Z,18.90
2022-10-28T05:32:12.464Z,13.57
2022-10-28T05:35:15.446Z,25.27
2022-10-28T05:38:18.450Z,13.97
2022-10-28T05:41:23.378Z,22.67
2022-10-28T05:44:26.515Z,17.70
2022-10-28T05:47:29.502Z,14.53
2022-10-28T05:50:32.426Z,20.77
2022-10-28T05:53:35.360Z,17.80
2022-10-28T05:56:39.639Z,18.83
2022-10-28T05:59:42.814Z,19.70
2022-10-28T06:02:46.042Z,23.43
2022-10-28T06:05:49.039Z,19.77
2022-10-28T06:08:52.054Z,17.37
2022-10-28T06:11:54.904Z,29.40
2022-10-28T06:14:57.917Z,26.67
2022-10-28T06:18:01.146Z,32.23
2022-10-28T06:21:05.066Z,20.47
2022-10-28T06:24:12.178Z,23.97
2022-10-28T06:27:16.561Z,21.90
2022-10-28T06:30:19.549Z,22.03
2022-10-28T06:33:22.479Z,21.37
2022-10-28T06:36:25.480Z,27.60
2022-10-28T06:39:28.393Z,21.30
2022-10-28T06:42:32.655Z,25.87
2022-10-28T06:45:35.568Z,27.33
2022-10-28T06:48:39.998Z,24.30
2022-10-28T06:51:43.069Z,25.93
2022-10-28T06:54:45.995Z,23.70
2022-10-28T06:57:50.261Z,24.27
2022-10-28T07:00:54.045Z,26.83
2022-10-28T07:03:57.188Z,24.60
2022-10-28T07:07:00.331Z,28.80
2022-10-28T07:10:03.305Z,21.50
2022-10-28T07:13:07.645Z,22.03
2022-10-28T07:16:10.810Z,26.70
2022-10-28T07:19:13.816Z,32.57
2022-10-28T07:22:16.754Z,26.13
2022-10-28T07:25:19.714Z,19.67
2022-10-28T07:28:25.580Z,26.03
2022-10-28T07:31:28.490Z,26.23
2022-10-28T07:34:31.465Z,23.90
2022-10-28T07:37:34.428Z,23.80
2022-10-28T07:40:37.726Z,21.80
2022-10-28T07:43:41.986Z,29.17
2022-10-28T07:46:44.908Z,25.57
2022-10-28T07:49:48.336Z,26.53
2022-10-28T07:52:51.968Z,16.27
2022-10-28T07:55:58.950Z,18.90
2022-10-28T07:59:03.246Z,19.63
2022-10-28T08:02:06.370Z,18.33
2022-10-28T08:05:09.860Z,16.87
2022-10-28T08:08:12.869Z,21.03
2022-10-28T08:11:18.855Z,16.33
2022-10-28T08:14:23.427Z,21.57
2022-10-28T08:17:26.547Z,13.87
2022-10-28T08:20:29.541Z,19.38
2022-10-28T08:23:32.889Z,13.53
2022-10-28T08:26:35.800Z,14.90
2022-10-28T08:29:40.020Z,12.05
2022-10-28T08:32:43.367Z,13.53
2022-10-28T08:35:51.774Z,11.65
2022-10-28T08:38:54.740Z,13.63
2022-10-28T08:42:10.718Z,13.55
2022-10-28T08:45:25.214Z,10.68
2022-10-28T08:48:32.794Z,11.10
2022-10-28T08:51:45.593Z,16.80
2022-10-28T08:54:54.576Z,11.77
2022-10-28T08:58:00.844Z,12.57
2022-10-28T09:01:10.579Z,15.65
2022-10-28T09:04:25.415Z,13.23
2022-10-28T09:07:28.412Z,9.48
2022-10-28T09:11:02.209Z,10.90
2022-10-28T09:14:30.745Z,14.18
2022-10-28T09:17:46.254Z,12.48
2022-10-28T09:20:54.829Z,10.38
2022-10-28T09:24:00.853Z,9.68
2022-10-28T09:27:13.792Z,10.13
2022-10-28T09:30:30.205Z,7.95
2022-10-28T09:33:50.830Z,11.82
2022-10-28T09:36:57.374Z,9.05
2022-10-28T09:40:06.844Z,9.07
2022-10-28T09:43:23.525Z,11.85
2022-10-28T09:46:33.330Z,6.93
2022-10-28T09:49:41.730Z,16.40
2022-10-28T09:52:54.551Z,12.65
2022-10-28T09:55:57.558Z,9.05
2022-10-28T09:59:03.115Z,9.85
2022-10-28T10:02:06.581Z,10.02
2022-10-28T10:05:17.181Z,11.35
2022-10-28T10:08:22.710Z,13.35
2022-10-28T10:11:32.414Z,9.25
2022-10-28T10:14:40.669Z,7.15
2022-10-28T10:17:47.091Z,13.13
2022-10-28T10:20:55.673Z,14.40
2022-10-28T10:23:59.696Z,7.55
2022-10-28T10:27:14.287Z,9.10
2022-10-28T10:30:23.690Z,7.25
2022-10-28T10:33:30.224Z,8.68
2022-10-28T10:36:35.550Z,9.50
2022-10-28T10:39:39.842Z,7.18
2022-10-28T10:42:51.893Z,8.57
2022-10-28T10:46:14.901Z,11.88
2022-10-28T10:49:17.864Z,7.38
2022-10-28T10:52:25.964Z,11.45
2022-10-28T10:55:35.465Z,10.63
2022-10-28T10:58:42.356Z,8.68
2022-10-28T11:01:45.425Z,9.88
2022-10-28T11:04:52.204Z,13.93
2022-10-28T11:08:04.874Z,8.50
2022-10-28T11:11:13.731Z,6.78
2022-10-28T11:14:25.565Z,8.05
2022-10-28T11:20:49.654Z,9.13
2022-10-28T11:24:11.057Z,6.63
2022-10-28T11:27:35.422Z,7.25
2022-10-28T11:30:53.940Z,6.97
2022-10-28T11:34:13.935Z,11.07
2022-10-28T11:37:28.569Z,7.75
2022-10-28T11:40:43.577Z,15.68
2022-10-28T11:43:54.885Z,7.68
2022-10-28T11:47:11.897Z,17.77
2022-10-28T11:50:25.351Z,11.00
2022-10-28T11:54:09.424Z,11.75
2022-10-28T11:57:17.883Z,10.60
2022-10-28T12:00:52.479Z,10.25
2022-10-28T12:04:09.802Z,7.63
2022-10-28T12:07:32.482Z,10.50
2022-10-28T12:10:49.356Z,7.15
2022-10-28T12:17:18.245Z,8.77
2022-10-28T12:20:26.172Z,11.45
2022-10-28T12:23:33.268Z,10.07
2022-10-28T12:26:41.984Z,9.57
2022-10-28T12:29:52.638Z,7.07
2022-10-28T12:33:00.989Z,8.57
2022-10-28T12:36:22.801Z,9.63
2022-10-28T12:39:32.611Z,9.00
2022-10-28T12:42:41.515Z,11.48
2022-10-28T12:45:49.840Z,6.20
2022-10-28T12:49:01.382Z,12.98
2022-10-28T12:52:25.302Z,7.75
2022-10-28T12:55:36.559Z,10.48
2022-10-28T12:58:48.569Z,7.57
2022-10-28T13:01:53.670Z,10.68
2022-10-28T13:04:58.049Z,14.40
2022-10-28T13:08:27.597Z,9.38
2022-10-28T13:12:07.369Z,9.55
2022-10-28T13:15:36.864Z,6.78
2022-10-28T13:19:02.618Z,11.52
2022-10-28T13:22:34.310Z,9.15
2022-10-28T13:25:57.213Z,15.43
2022-10-28T13:29:02.981Z,13.25
2022-10-28T13:32:06.004Z,14.00
2022-10-28T13:35:21.440Z,9.40
2022-10-28T13:38:26.821Z,9.23
2022-10-28T13:41:34.372Z,8.68
2022-10-28T13:44:49.635Z,10.13
2022-10-28T13:47:52.548Z,11.07
2022-10-28T13:51:32.210Z,10.73
2022-10-28T13:54:54.121Z,8.23
2022-10-28T13:58:05.109Z,27.10
2022-10-28T14:01:38.663Z,22.85
2022-10-28T14:04:44.088Z,14.15
2022-10-28T14:07:57.053Z,14.82
2022-10-28T14:11:05.417Z,12.55
2022-10-28T14:14:13.663Z,9.23
2022-10-28T14:17:22.924Z,11.43
2022-10-28T14:20:34.897Z,11.70
2022-10-28T14:24:34.276Z,15.32
2022-10-28T14:27:43.893Z,8.23
2022-10-28T14:31:40.507Z,10.43
2022-10-28T14:34:46.707Z,11.23
2022-10-28T14:38:29.448Z,10.85
2022-10-28T14:41:50.577Z,13.98
2022-10-28T14:45:23.405Z,9.45
2022-10-28T14:48:46.614Z,10.88
2022-10-28T14:51:50.924Z,13.27
2022-10-28T14:54:57.176Z,7.80
2022-10-28T14:58:22.091Z,9.88
2022-10-28T15:01:28.353Z,10.90
2022-10-28T15:04:32.122Z,10.60
2022-10-28T15:07:38.104Z,13.27
2022-10-28T15:10:46.307Z,10.15
2022-10-28T15:13:54.079Z,8.13
2022-10-28T15:16:57.965Z,9.70
2022-10-28T15:20:03.435Z,8.27
2022-10-28T15:23:15.123Z,11.82
2022-10-28T15:26:18.918Z,10.98
2022-10-28T15:29:23.325Z,13.32
2022-10-28T15:32:35.664Z,10.82
2022-10-28T15:35:40.403Z,14.98
2022-10-28T15:38:44.456Z,14.05
2022-10-28T15:41:49.444Z,9.35
2022-10-28T15:44:57.314Z,8.57
2022-10-28T15:48:03.644Z,14.07
2022-10-28T15:51:14.706Z,12.32
2022-10-28T15:54:20.810Z,13.23
2022-10-28T15:57:26.587Z,14.65
2022-10-28T16:00:32.530Z,14.65
2022-10-28T16:03:45.267Z,16.90
2022-10-28T16:06:48.585Z,12.93
2022-10-28T16:09:51.988Z,12.45
2022-10-28T16:12:55.257Z,11.85
2022-10-28T16:16:07.555Z,11.63
2022-10-28T16:19:20.448Z,10.80
2022-10-28T16:22:26.002Z,10.93
2022-10-28T16:25:28.928Z,14.82
2022-10-28T16:28:33.372Z,18.35
2022-10-28T16:31:37.710Z,14.40
2022-10-28T16:34:40.858Z,16.23
2022-10-28T16:37:47.380Z,25.40
2022-10-28T16:40:54.448Z,17.02
2022-10-28T16:43:57.375Z,18.77
2022-10-28T16:47:01.783Z,12.45
2022-10-28T16:50:05.293Z,12.57
2022-10-28T16:53:08.234Z,11.95
2022-10-28T16:56:13.745Z,9.40
2022-10-28T16:59:19.128Z,16.30
2022-10-28T17:02:27.609Z,12.98
2022-10-28T17:05:31.173Z,18.55
2022-10-28T17:09:01.444Z,18.90
2022-10-28T17:11:57.145Z,10.75
2022-10-28T17:15:00.094Z,11.65
2022-10-28T17:18:04.933Z,17.23
2022-10-28T17:21:07.916Z,16.85
2022-10-28T17:24:11.250Z,13.27
2022-10-28T17:27:14.553Z,13.15
2022-10-28T17:30:18.496Z,10.90
2022-10-28T17:33:23.210Z,17.77
2022-10-28T17:36:26.198Z,11.20
2022-10-28T17:39:29.155Z,14.13
2022-10-28T17:42:32.352Z,14.82
2022-10-28T17:45:35.311Z,12.75
2022-10-28T17:48:40.230Z,16.83
2022-10-28T17:51:43.478Z,10.68
2022-10-28T17:54:46.639Z,14.15
2022-10-28T17:57:49.548Z,12.00
2022-10-28T18:00:58.051Z,15.77
2022-10-28T18:04:03.534Z,15.80
2022-10-28T18:07:06.812Z,17.77
2022-10-28T18:10:10.961Z,13.82
2022-10-28T18:13:14.280Z,15.48
2022-10-28T18:16:19.891Z,13.82
2022-10-28T18:19:24.226Z,13.25
2022-10-28T18:22:27.194Z,12.15
2022-10-28T18:25:30.154Z,16.60
2022-10-28T18:28:35.190Z,18.55
2022-10-28T18:31:40.528Z,20.35
2022-10-28T18:34:44.928Z,12.80
2022-10-28T18:37:47.873Z,13.80
2022-10-28T18:40:50.798Z,13.80
2022-10-28T18:43:54.985Z,19.85
2022-10-28T18:46:58.225Z,18.27
2022-10-28T18:50:02.648Z,16.27
2022-10-28T18:53:05.881Z,14.85
2022-10-28T18:56:12.047Z,17.38
2022-10-28T18:59:15.037Z,19.88
2022-10-28T19:02:18.396Z,19.67
2022-10-28T19:05:22.993Z,18.00
2022-10-28T19:08:25.903Z,25.17
2022-10-28T19:11:31.261Z,23.48
2022-10-28T19:14:34.666Z,17.70
2022-10-28T19:17:37.615Z,19.10
2022-10-28T19:20:42.062Z,24.05
2022-10-28T19:23:45.177Z,20.20
2022-10-28T19:26:48.108Z,18.70
2022-10-28T19:29:51.038Z,15.90
2022-10-28T19:32:54.452Z,21.48
2022-10-28T19:36:04.791Z,19.55
2022-10-28T19:39:07.791Z,16.92
2022-10-28T19:42:10.836Z,19.60
2022-10-28T19:45:13.825Z,20.08
2022-10-28T19:48:16.802Z,13.82
2022-10-28T19:51:23.423Z,16.27
2022-10-28T19:54:26.373Z,26.08
2022-10-28T19:57:29.338Z,19.10
2022-10-28T20:00:32.266Z,17.17
2022-10-28T20:03:36.878Z,15.90
2022-10-28T20:06:42.861Z,16.27
2022-10-28T20:09:46.300Z,16.33
2022-10-28T20:12:49.407Z,14.93
2022-10-28T20:15:52.747Z,17.33
2022-10-28T20:18:56.801Z,13.40
2022-10-28T20:22:01.062Z,12.90
2022-10-28T20:25:08.465Z,18.23
2022-10-28T20:28:11.416Z,17.60
2022-10-28T20:31:17.531Z,13.80
2022-10-28T20:34:20.483Z,20.83
2022-10-28T20:37:24.941Z,25.50
2022-10-28T20:40:27.963Z,20.98
2022-10-28T20:43:30.855Z,20.85
2022-10-28T20:46:34.642Z,16.70
2022-10-28T20:49:39.473Z,21.05
2022-10-28T20:52:44.115Z,22.10
2022-10-28T20:55:48.760Z,14.73
2022-10-28T20:58:52.588Z,18.02
2022-10-28T21:01:55.569Z,19.20
2022-10-28T21:04:58.553Z,14.70
2022-10-28T21:08:02.813Z,14.43
2022-10-28T21:11:07.395Z,16.30
2022-10-28T21:14:10.486Z,17.02
2022-10-28T21:17:13.436Z,14.25
2022-10-28T21:20:16.574Z,19.98
2022-10-28T21:23:20.784Z,20.23
2022-10-28T21:26:23.915Z,15.13
2022-10-28T21:29:26.800Z,24.30
2022-10-28T21:32:29.706Z,16.63
2022-10-28T21:35:32.626Z,17.02
2022-10-28T21:38:37.397Z,18.75
2022-10-28T21:41:40.407Z,17.88
2022-10-28T21:44:43.448Z,16.08
2022-10-28T21:47:46.404Z,17.23
2022-10-28T21:50:52.912Z,14.55
2022-10-28T21:53:57.442Z,13.77
2022-10-28T21:57:00.617Z,18.50
2022-10-28T22:00:05.002Z,18.10
2022-10-28T22:03:16.892Z,12.70
2022-10-28T22:06:19.875Z,16.65
2022-10-28T22:09:24.205Z,15.00
2022-10-28T22:12:27.220Z,22.33
2022-10-28T22:15:30.325Z,17.83
2022-10-28T22:18:35.647Z,22.00
2022-10-28T22:21:39.979Z,22.33
2022-10-28T22:24:44.332Z,23.57
2022-10-28T22:27:47.291Z,22.47
2022-10-28T22:30:50.465Z,19.67
2022-10-28T22:33:54.025Z,15.50
2022-10-28T22:36:56.937Z,17.47
2022-10-28T22:40:01.382Z,15.27
2022-10-28T22:43:04.373Z,15.88
2022-10-28T22:46:08.247Z,18.97
2022-10-28T22:49:11.400Z,16.10
2022-10-28T22:52:14.487Z,18.73
2022-10-28T22:55:19.060Z,15.35
2022-10-28T22:58:24.467Z,15.15
2022-10-28T23:01:29.323Z,18.65
2022-10-28T23:04:32.770Z,20.45
2022-10-28T23:07:37.831Z,20.35
2022-10-28T23:10:43.630Z,17.13
2022-10-28T23:13:47.336Z,16.48
2022-10-28T23:16:50.256Z,20.08
2022-10-28T23:19:53.184Z,18.90
2022-10-28T23:22:59.673Z,14.85
2022-10-28T23:26:04.467Z,15.25
2022-10-28T23:29:07.515Z,15.57
2022-10-28T23:32:10.527Z,14.40
2022-10-28T23:35:13.621Z,16.52
2022-10-28T23:38:19.004Z,16.20
2022-10-28T23:41:23.746Z,14.68
2022-10-28T23:44:26.660Z,16.50
2022-10-28T23:47:29.799Z,12.85
2022-10-28T23:50:33.032Z,14.50
2022-10-28T23:53:36.219Z,13.55
2022-10-28T23:56:40.505Z,22.20
2022-10-28T23:59:43.748Z,15.90
